Terminal Aerodrome Forecast
Issued by NWS Springfield, MO

Home | Current Version | Previous Version | Text Only | Print | Product List | Glossary On
Versions: 1 2 3 4 5 6 7 8 9 10 11 12 13 14 15
000
FTUS43 KSGF 012300 CCA
TAFSGF
TAF COR
KSGF 012324Z 0200/0224 17012KT P6SM SCT050 BKN250
     FM021000 16010KT P6SM SCT050 OVC100 PROB30 0210/0216 3SM -TSRA
      BR OVC030CB
     FM021600 18010KT 3SM -TSRA BR SCT030 BKN050CB
     FM022100 22015KT 3SM -TSRA BR SCT020CB OVC030=

USA.gov is the U.S. government's official web portal to all federal, state and local government web resources and services.